Sao Joao do Piaui, Brazil
Current Conditions -  °F | °C
As of 3:00 PM on Saturday 25 Oct 2014 (Local Time) from SBPL Reporting Station
Scattered Clouds Scattered Clouds  
Wind Chill: 95°   Ceiling: Unl
Heat Index: 96°   Visibility: 6mi
Dew Point: 63°   Wind: 9mph
Humidity: 34%   Direction: 130°SE
Pressure: 29.85"   Gusts: NA
Location:  8.36°S, 42.25°W
Report Text: SBPL 251800Z 13008KT 9999 SCT030 35/17 Q1011
Loading
Personal Weather Stations






























Interactive Weather Map
Tropical Storm Tracking
New forecast layout! Learn more

10-Day Weather Forecast

Advertisements
Track Severe Weather on mobile